sensor_id;sensor_type;location;lat;lon;timestamp;P1;durP1;ratioP1;P2;durP2;ratioP2
16624;SDS011;8426;48.496;9.098;2023-06-22T06:31:01;8.63;;;4.47;;
16624;SDS011;8426;48.496;9.098;2023-06-22T06:36:12;9.45;;;4.40;;
16624;SDS011;8426;48.496;9.098;2023-06-22T06:41:16;6.88;;;4.38;;
16624;SDS011;8426;48.496;9.098;2023-06-22T06:46:20;7.20;;;4.22;;
16624;SDS011;8426;48.496;9.098;2023-06-22T06:51:24;13.10;;;3.60;;
16624;SDS011;8426;48.496;9.098;2023-06-22T06:56:27;9.70;;;3.75;;
16624;SDS011;8426;48.496;9.098;2023-06-22T07:01:33;7.47;;;3.80;;
16624;SDS011;8426;48.496;9.098;2023-06-22T07:06:37;7.13;;;3.28;;
16624;SDS011;8426;48.496;9.098;2023-06-22T07:11:41;17.48;;;3.70;;
16624;SDS011;8426;48.496;9.098;2023-06-22T07:16:46;6.65;;;3.65;;
16624;SDS011;8426;48.496;9.098;2023-06-22T07:21:50;11.07;;;3.38;;
16624;SDS011;8426;48.496;9.098;2023-06-22T07:26:55;15.27;;;3.90;;
16624;SDS011;8426;48.496;9.098;2023-06-22T07:32:02;6.63;;;3.65;;
16624;SDS011;8426;48.496;9.098;2023-06-22T07:37:06;13.32;;;3.40;;
16624;SDS011;8426;48.496;9.098;2023-06-22T07:42:10;9.50;;;3.30;;
16624;SDS011;8426;48.496;9.098;2023-06-22T07:47:16;11.10;;;3.75;;
16624;SDS011;8426;48.496;9.098;2023-06-22T07:52:21;15.40;;;4.13;;
16624;SDS011;8426;48.496;9.098;2023-06-22T07:57:27;10.25;;;3.88;;
16624;SDS011;8426;48.496;9.098;2023-06-22T08:02:37;11.90;;;3.28;;
16624;SDS011;8426;48.496;9.098;2023-06-22T08:07:41;10.07;;;3.30;;
16624;SDS011;8426;48.496;9.098;2023-06-22T08:12:49;10.25;;;4.25;;
16624;SDS011;8426;48.496;9.098;2023-06-22T08:17:54;5.82;;;3.40;;
16624;SDS011;8426;48.496;9.098;2023-06-22T08:22:59;11.43;;;3.90;;
16624;SDS011;8426;48.496;9.098;2023-06-22T08:28:07;15.00;;;4.18;;
16624;SDS011;8426;48.496;9.098;2023-06-22T08:33:12;11.23;;;4.13;;
16624;SDS011;8426;48.496;9.098;2023-06-22T08:38:30;8.10;;;4.22;;
16624;SDS011;8426;48.496;9.098;2023-06-22T08:43:34;11.30;;;4.15;;
16624;SDS011;8426;48.496;9.098;2023-06-22T08:48:39;10.02;;;4.60;;
16624;SDS011;8426;48.496;9.098;2023-06-22T08:53:44;13.25;;;4.45;;
16624;SDS011;8426;48.496;9.098;2023-06-22T08:58:47;14.35;;;4.43;;
16624;SDS011;8426;48.496;9.098;2023-06-22T09:03:57;10.93;;;3.80;;
16624;SDS011;8426;48.496;9.098;2023-06-22T09:09:01;10.13;;;4.07;;
16624;SDS011;8426;48.496;9.098;2023-06-22T09:14:05;11.20;;;4.13;;
16624;SDS011;8426;48.496;9.098;2023-06-22T09:19:10;13.30;;;4.50;;
16624;SDS011;8426;48.496;9.098;2023-06-22T09:24:13;8.38;;;4.43;;
16624;SDS011;8426;48.496;9.098;2023-06-22T09:29:17;11.07;;;3.95;;
16624;SDS011;8426;48.496;9.098;2023-06-22T09:34:21;13.25;;;4.22;;
16624;SDS011;8426;48.496;9.098;2023-06-22T09:39:25;9.65;;;4.07;;
16624;SDS011;8426;48.496;9.098;2023-06-22T09:44:28;11.98;;;4.57;;
16624;SDS011;8426;48.496;9.098;2023-06-22T09:49:34;15.45;;;4.15;;
16624;SDS011;8426;48.496;9.098;2023-06-22T09:54:50;13.13;;;4.30;;
16624;SDS011;8426;48.496;9.098;2023-06-22T09:59:54;16.00;;;3.97;;
16624;SDS011;8426;48.496;9.098;2023-06-22T10:05:00;21.50;;;4.32;;
16624;SDS011;8426;48.496;9.098;2023-06-22T10:10:04;10.07;;;5.00;;
16624;SDS011;8426;48.496;9.098;2023-06-22T10:15:09;21.48;;;4.60;;
16624;SDS011;8426;48.496;9.098;2023-06-22T10:20:15;16.27;;;4.82;;
16624;SDS011;8426;48.496;9.098;2023-06-22T10:25:20;17.55;;;4.57;;
16624;SDS011;8426;48.496;9.098;2023-06-22T10:30:24;14.52;;;4.35;;
16624;SDS011;8426;48.496;9.098;2023-06-22T10:35:29;16.80;;;4.75;;
16624;SDS011;8426;48.496;9.098;2023-06-22T10:40:32;15.95;;;4.47;;
16624;SDS011;8426;48.496;9.098;2023-06-22T10:45:36;9.98;;;4.70;;
16624;SDS011;8426;48.496;9.098;2023-06-22T10:50:41;13.20;;;4.60;;
16624;SDS011;8426;48.496;9.098;2023-06-22T10:55:44;17.13;;;5.13;;
16624;SDS011;8426;48.496;9.098;2023-06-22T11:00:58;13.82;;;5.07;;
16624;SDS011;8426;48.496;9.098;2023-06-22T11:06:03;8.98;;;3.92;;
16624;SDS011;8426;48.496;9.098;2023-06-22T11:11:06;13.23;;;4.68;;
16624;SDS011;8426;48.496;9.098;2023-06-22T11:16:10;18.40;;;4.57;;
16624;SDS011;8426;48.496;9.098;2023-06-22T11:21:15;15.95;;;5.05;;
16624;SDS011;8426;48.496;9.098;2023-06-22T11:26:18;12.23;;;4.95;;
16624;SDS011;8426;48.496;9.098;2023-06-22T11:31:22;11.52;;;4.68;;
16624;SDS011;8426;48.496;9.098;2023-06-22T11:36:29;13.23;;;4.78;;
16624;SDS011;8426;48.496;9.098;2023-06-22T11:41:34;12.65;;;5.00;;
16624;SDS011;8426;48.496;9.098;2023-06-22T11:46:39;14.30;;;4.82;;
16624;SDS011;8426;48.496;9.098;2023-06-22T11:51:47;12.32;;;5.00;;
16624;SDS011;8426;48.496;9.098;2023-06-22T11:56:51;11.90;;;5.20;;
16624;SDS011;8426;48.496;9.098;2023-06-22T12:01:54;14.18;;;5.28;;
16624;SDS011;8426;48.496;9.098;2023-06-22T12:07:01;10.35;;;5.07;;
16624;SDS011;8426;48.496;9.098;2023-06-22T12:12:05;18.52;;;5.10;;
16624;SDS011;8426;48.496;9.098;2023-06-22T12:17:09;11.07;;;4.63;;
16624;SDS011;8426;48.496;9.098;2023-06-22T12:22:14;12.75;;;4.65;;
16624;SDS011;8426;48.496;9.098;2023-06-22T12:27:18;11.63;;;4.55;;
16624;SDS011;8426;48.496;9.098;2023-06-22T12:32:21;8.70;;;5.10;;
16624;SDS011;8426;48.496;9.098;2023-06-22T12:37:26;21.48;;;6.03;;
16624;SDS011;8426;48.496;9.098;2023-06-22T12:42:29;12.45;;;5.20;;
16624;SDS011;8426;48.496;9.098;2023-06-22T12:47:33;12.98;;;5.25;;
16624;SDS011;8426;48.496;9.098;2023-06-22T12:52:38;13.80;;;4.68;;
16624;SDS011;8426;48.496;9.098;2023-06-22T12:57:42;8.98;;;4.95;;
16624;SDS011;8426;48.496;9.098;2023-06-22T13:02:46;14.50;;;4.95;;
16624;SDS011;8426;48.496;9.098;2023-06-22T13:07:51;19.80;;;5.10;;
16624;SDS011;8426;48.496;9.098;2023-06-22T13:12:56;9.20;;;4.55;;
16624;SDS011;8426;48.496;9.098;2023-06-22T13:18:02;14.30;;;5.28;;
16624;SDS011;8426;48.496;9.098;2023-06-22T13:23:07;24.55;;;5.53;;
16624;SDS011;8426;48.496;9.098;2023-06-22T13:28:17;16.50;;;4.95;;
16624;SDS011;8426;48.496;9.098;2023-06-22T13:33:29;10.65;;;4.90;;
16624;SDS011;8426;48.496;9.098;2023-06-22T13:38:57;20.83;;;5.25;;
16624;SDS011;8426;48.496;9.098;2023-06-22T13:44:03;9.60;;;4.53;;
16624;SDS011;8426;48.496;9.098;2023-06-22T13:49:07;8.00;;;4.53;;
16624;SDS011;8426;48.496;9.098;2023-06-22T13:54:11;15.45;;;5.72;;
16624;SDS011;8426;48.496;9.098;2023-06-22T13:59:30;15.93;;;5.13;;
16624;SDS011;8426;48.496;9.098;2023-06-22T14:04:33;11.95;;;5.13;;
16624;SDS011;8426;48.496;9.098;2023-06-22T14:09:38;19.85;;;5.72;;
16624;SDS011;8426;48.496;9.098;2023-06-22T14:14:41;12.00;;;4.70;;
16624;SDS011;8426;48.496;9.098;2023-06-22T14:19:45;17.63;;;5.25;;
16624;SDS011;8426;48.496;9.098;2023-06-22T14:24:49;10.55;;;4.82;;
16624;SDS011;8426;48.496;9.098;2023-06-22T14:29:53;13.27;;;6.07;;
16624;SDS011;8426;48.496;9.098;2023-06-22T14:34:56;13.35;;;4.63;;
16624;SDS011;8426;48.496;9.098;2023-06-22T14:40:03;10.77;;;4.95;;
16624;SDS011;8426;48.496;9.098;2023-06-22T14:45:12;11.07;;;5.13;;
16624;SDS011;8426;48.496;9.098;2023-06-22T14:50:17;11.75;;;4.70;;
16624;SDS011;8426;48.496;9.098;2023-06-22T14:55:23;24.75;;;5.90;;
16624;SDS011;8426;48.496;9.098;2023-06-22T15:00:26;14.32;;;4.72;;
16624;SDS011;8426;48.496;9.098;2023-06-22T15:05:30;20.77;;;4.95;;
16624;SDS011;8426;48.496;9.098;2023-06-22T15:10:41;28.70;;;4.50;;
16624;SDS011;8426;48.496;9.098;2023-06-22T15:15:45;25.27;;;4.18;;
16624;SDS011;8426;48.496;9.098;2023-06-22T15:20:49;17.58;;;3.83;;
16624;SDS011;8426;48.496;9.098;2023-06-22T15:25:56;12.88;;;3.25;;
16624;SDS011;8426;48.496;9.098;2023-06-22T15:31:00;18.25;;;3.85;;
16624;SDS011;8426;48.496;9.098;2023-06-22T15:36:04;10.02;;;2.88;;
16624;SDS011;8426;48.496;9.098;2023-06-22T15:41:10;19.42;;;3.13;;
16624;SDS011;8426;48.496;9.098;2023-06-22T15:46:13;15.32;;;3.00;;
16624;SDS011;8426;48.496;9.098;2023-06-22T15:51:22;10.13;;;2.70;;
16624;SDS011;8426;48.496;9.098;2023-06-22T15:56:27;14.27;;;2.95;;
16624;SDS011;8426;48.496;9.098;2023-06-22T16:01:31;10.63;;;2.80;;
16624;SDS011;8426;48.496;9.098;2023-06-22T16:06:35;13.55;;;3.70;;
16624;SDS011;8426;48.496;9.098;2023-06-22T16:11:41;11.05;;;3.50;;
16624;SDS011;8426;48.496;9.098;2023-06-22T16:16:46;11.25;;;3.42;;
16624;SDS011;8426;48.496;9.098;2023-06-22T16:21:50;9.73;;;3.17;;
16624;SDS011;8426;48.496;9.098;2023-06-22T16:26:55;14.32;;;3.40;;
16624;SDS011;8426;48.496;9.098;2023-06-22T16:31:59;20.77;;;3.58;;
16624;SDS011;8426;48.496;9.098;2023-06-22T16:37:02;10.57;;;3.42;;
16624;SDS011;8426;48.496;9.098;2023-06-22T16:42:09;19.27;;;3.35;;
16624;SDS011;8426;48.496;9.098;2023-06-22T16:47:12;13.23;;;3.45;;
16624;SDS011;8426;48.496;9.098;2023-06-22T16:52:16;21.95;;;3.60;;
16624;SDS011;8426;48.496;9.098;2023-06-22T16:57:21;10.27;;;3.47;;
16624;SDS011;8426;48.496;9.098;2023-06-22T17:02:26;11.55;;;3.35;;
16624;SDS011;8426;48.496;9.098;2023-06-22T17:07:34;8.52;;;3.17;;
16624;SDS011;8426;48.496;9.098;2023-06-22T17:12:45;16.48;;;3.75;;
16624;SDS011;8426;48.496;9.098;2023-06-22T17:17:53;10.07;;;2.88;;
16624;SDS011;8426;48.496;9.098;2023-06-22T17:22:56;10.45;;;2.60;;
16624;SDS011;8426;48.496;9.098;2023-06-22T17:28:04;8.75;;;2.65;;
16624;SDS011;8426;48.496;9.098;2023-06-22T17:33:08;12.35;;;2.70;;
16624;SDS011;8426;48.496;9.098;2023-06-22T17:38:15;10.32;;;2.90;;
16624;SDS011;8426;48.496;9.098;2023-06-22T17:43:24;15.88;;;3.33;;
16624;SDS011;8426;48.496;9.098;2023-06-22T17:48:29;7.40;;;2.83;;
16624;SDS011;8426;48.496;9.098;2023-06-22T17:53:33;10.40;;;2.47;;
16624;SDS011;8426;48.496;9.098;2023-06-22T17:58:40;8.60;;;2.60;;
16624;SDS011;8426;48.496;9.098;2023-06-22T18:03:52;12.75;;;3.08;;
16624;SDS011;8426;48.496;9.098;2023-06-22T18:08:57;9.43;;;2.25;;
16624;SDS011;8426;48.496;9.098;2023-06-22T18:14:06;9.48;;;2.80;;
16624;SDS011;8426;48.496;9.098;2023-06-22T18:19:10;12.10;;;2.88;;
16624;SDS011;8426;48.496;9.098;2023-06-22T18:24:18;7.75;;;2.08;;
